sensor_id;sensor_type;location;lat;lon;timestamp;P1;durP1;ratioP1;P2;durP2;ratioP2
64353;SDS011;50681;53.334;-6.536;2023-04-03T00:00:42;17.77;;;7.63;;
64353;SDS011;50681;53.334;-6.536;2023-04-03T00:05:03;11.32;;;5.95;;
64353;SDS011;50681;53.334;-6.536;2023-04-03T00:07:29;14.05;;;6.28;;
64353;SDS011;50681;53.334;-6.536;2023-04-03T00:09:55;12.13;;;6.33;;
64353;SDS011;50681;53.334;-6.536;2023-04-03T00:12:20;13.70;;;5.30;;
64353;SDS011;50681;53.334;-6.536;2023-04-03T00:14:46;13.20;;;5.33;;
64353;SDS011;50681;53.334;-6.536;2023-04-03T00:17:11;10.60;;;5.70;;
64353;SDS011;50681;53.334;-6.536;2023-04-03T00:19:37;12.10;;;5.17;;
64353;SDS011;50681;53.334;-6.536;2023-04-03T00:22:02;12.20;;;5.40;;
64353;SDS011;50681;53.334;-6.536;2023-04-03T00:24:37;13.80;;;5.77;;
64353;SDS011;50681;53.334;-6.536;2023-04-03T00:27:04;18.70;;;5.90;;
64353;SDS011;50681;53.334;-6.536;2023-04-03T00:29:46;14.43;;;5.63;;
64353;SDS011;50681;53.334;-6.536;2023-04-03T00:32:12;11.82;;;5.40;;
64353;SDS011;50681;53.334;-6.536;2023-04-03T00:34:38;12.55;;;5.53;;
64353;SDS011;50681;53.334;-6.536;2023-04-03T00:37:03;13.93;;;5.37;;
64353;SDS011;50681;53.334;-6.536;2023-04-03T00:39:32;13.70;;;6.07;;
64353;SDS011;50681;53.334;-6.536;2023-04-03T00:42:00;18.83;;;5.75;;
64353;SDS011;50681;53.334;-6.536;2023-04-03T00:47:00;10.55;;;5.15;;
64353;SDS011;50681;53.334;-6.536;2023-04-03T00:49:32;12.30;;;5.70;;
64353;SDS011;50681;53.334;-6.536;2023-04-03T00:51:58;10.82;;;5.38;;
64353;SDS011;50681;53.334;-6.536;2023-04-03T00:54:24;15.13;;;5.97;;
64353;SDS011;50681;53.334;-6.536;2023-04-03T00:56:51;18.70;;;6.93;;
64353;SDS011;50681;53.334;-6.536;2023-04-03T00:59:29;13.27;;;5.88;;
64353;SDS011;50681;53.334;-6.536;2023-04-03T01:01:58;14.98;;;6.55;;
64353;SDS011;50681;53.334;-6.536;2023-04-03T01:07:02;19.58;;;6.53;;
64353;SDS011;50681;53.334;-6.536;2023-04-03T01:09:47;20.42;;;9.00;;
64353;SDS011;50681;53.334;-6.536;2023-04-03T01:12:19;26.77;;;12.45;;
64353;SDS011;50681;53.334;-6.536;2023-04-03T01:14:56;22.08;;;10.38;;
64353;SDS011;50681;53.334;-6.536;2023-04-03T01:17:34;75.93;;;31.30;;
64353;SDS011;50681;53.334;-6.536;2023-04-03T01:25:37;24.40;;;10.68;;
64353;SDS011;50681;53.334;-6.536;2023-04-03T01:28:06;19.27;;;9.40;;
64353;SDS011;50681;53.334;-6.536;2023-04-03T01:30:39;14.15;;;7.78;;
64353;SDS011;50681;53.334;-6.536;2023-04-03T01:33:11;12.32;;;7.22;;
64353;SDS011;50681;53.334;-6.536;2023-04-03T01:35:37;16.97;;;7.23;;
64353;SDS011;50681;53.334;-6.536;2023-04-03T01:38:03;15.48;;;6.70;;
64353;SDS011;50681;53.334;-6.536;2023-04-03T01:40:32;14.35;;;5.90;;
64353;SDS011;50681;53.334;-6.536;2023-04-03T01:42:59;13.25;;;6.20;;
64353;SDS011;50681;53.334;-6.536;2023-04-03T01:45:25;15.50;;;5.87;;
64353;SDS011;50681;53.334;-6.536;2023-04-03T01:47:53;12.18;;;5.47;;
64353;SDS011;50681;53.334;-6.536;2023-04-03T01:50:19;10.10;;;6.00;;
64353;SDS011;50681;53.334;-6.536;2023-04-03T01:52:47;10.60;;;5.60;;
64353;SDS011;50681;53.334;-6.536;2023-04-03T01:55:19;13.20;;;6.43;;
64353;SDS011;50681;53.334;-6.536;2023-04-03T01:57:45;11.20;;;5.80;;
64353;SDS011;50681;53.334;-6.536;2023-04-03T02:00:10;12.47;;;4.97;;
64353;SDS011;50681;53.334;-6.536;2023-04-03T02:02:39;14.90;;;5.32;;
64353;SDS011;50681;53.334;-6.536;2023-04-03T02:05:08;9.20;;;4.75;;
64353;SDS011;50681;53.334;-6.536;2023-04-03T02:07:34;8.15;;;4.60;;
64353;SDS011;50681;53.334;-6.536;2023-04-03T02:09:59;9.63;;;4.50;;
64353;SDS011;50681;53.334;-6.536;2023-04-03T02:12:25;10.80;;;5.00;;
64353;SDS011;50681;53.334;-6.536;2023-04-03T02:14:50;11.20;;;4.90;;
64353;SDS011;50681;53.334;-6.536;2023-04-03T02:17:16;8.90;;;4.70;;
64353;SDS011;50681;53.334;-6.536;2023-04-03T02:19:41;11.37;;;4.80;;
64353;SDS011;50681;53.334;-6.536;2023-04-03T02:22:07;11.43;;;4.97;;
64353;SDS011;50681;53.334;-6.536;2023-04-03T02:24:40;12.57;;;5.00;;
64353;SDS011;50681;53.334;-6.536;2023-04-03T02:27:06;13.50;;;4.70;;
64353;SDS011;50681;53.334;-6.536;2023-04-03T02:29:32;9.27;;;4.03;;
64353;SDS011;50681;53.334;-6.536;2023-04-03T02:32:00;11.35;;;4.63;;
64353;SDS011;50681;53.334;-6.536;2023-04-03T02:34:26;10.80;;;4.18;;
64353;SDS011;50681;53.334;-6.536;2023-04-03T02:36:51;7.70;;;4.00;;
64353;SDS011;50681;53.334;-6.536;2023-04-03T02:39:19;12.15;;;4.07;;
64353;SDS011;50681;53.334;-6.536;2023-04-03T02:41:45;9.20;;;3.95;;
64353;SDS011;50681;53.334;-6.536;2023-04-03T02:44:11;11.50;;;4.17;;
64353;SDS011;50681;53.334;-6.536;2023-04-03T02:46:43;6.82;;;3.80;;
64353;SDS011;50681;53.334;-6.536;2023-04-03T02:49:08;13.27;;;3.53;;
64353;SDS011;50681;53.334;-6.536;2023-04-03T02:51:33;6.37;;;3.70;;
64353;SDS011;50681;53.334;-6.536;2023-04-03T02:53:59;8.53;;;3.83;;
64353;SDS011;50681;53.334;-6.536;2023-04-03T02:56:32;9.38;;;3.00;;
64353;SDS011;50681;53.334;-6.536;2023-04-03T02:59:00;6.87;;;3.20;;
64353;SDS011;50681;53.334;-6.536;2023-04-03T03:01:31;6.72;;;3.10;;
64353;SDS011;50681;53.334;-6.536;2023-04-03T03:03:58;11.57;;;3.22;;
64353;SDS011;50681;53.334;-6.536;2023-04-03T03:06:25;9.10;;;3.33;;
64353;SDS011;50681;53.334;-6.536;2023-04-03T03:08:50;10.70;;;2.93;;
64353;SDS011;50681;53.334;-6.536;2023-04-03T03:11:16;5.53;;;2.80;;
64353;SDS011;50681;53.334;-6.536;2023-04-03T03:13:44;6.25;;;3.00;;
64353;SDS011;50681;53.334;-6.536;2023-04-03T03:16:09;4.97;;;2.92;;
64353;SDS011;50681;53.334;-6.536;2023-04-03T03:18:35;9.97;;;2.97;;
64353;SDS011;50681;53.334;-6.536;2023-04-03T03:21:03;6.43;;;3.05;;
64353;SDS011;50681;53.334;-6.536;2023-04-03T03:23:32;7.88;;;2.70;;
64353;SDS011;50681;53.334;-6.536;2023-04-03T03:25:58;8.52;;;3.88;;
64353;SDS011;50681;53.334;-6.536;2023-04-03T03:28:26;11.73;;;3.47;;
64353;SDS011;50681;53.334;-6.536;2023-04-03T03:30:52;11.45;;;3.40;;
64353;SDS011;50681;53.334;-6.536;2023-04-03T03:33:17;5.47;;;3.43;;
64353;SDS011;50681;53.334;-6.536;2023-04-03T03:35:43;10.50;;;3.45;;
64353;SDS011;50681;53.334;-6.536;2023-04-03T03:38:09;11.40;;;3.67;;
64353;SDS011;50681;53.334;-6.536;2023-04-03T03:40:35;9.20;;;4.57;;
64353;SDS011;50681;53.334;-6.536;2023-04-03T03:43:00;11.63;;;4.70;;
64353;SDS011;50681;53.334;-6.536;2023-04-03T03:48:40;12.23;;;4.63;;
64353;SDS011;50681;53.334;-6.536;2023-04-03T03:51:05;6.90;;;4.73;;
64353;SDS011;50681;53.334;-6.536;2023-04-03T03:53:31;13.40;;;6.07;;
64353;SDS011;50681;53.334;-6.536;2023-04-03T03:55:56;7.57;;;4.50;;
64353;SDS011;50681;53.334;-6.536;2023-04-03T03:58:22;11.40;;;5.07;;
64353;SDS011;50681;53.334;-6.536;2023-04-03T04:00:47;9.43;;;4.97;;
64353;SDS011;50681;53.334;-6.536;2023-04-03T04:03:13;12.03;;;5.33;;
64353;SDS011;50681;53.334;-6.536;2023-04-03T04:05:38;11.20;;;5.23;;
64353;SDS011;50681;53.334;-6.536;2023-04-03T04:08:11;15.60;;;6.13;;
64353;SDS011;50681;53.334;-6.536;2023-04-03T04:10:36;12.15;;;6.25;;
64353;SDS011;50681;53.334;-6.536;2023-04-03T04:15:34;12.45;;;6.93;;
64353;SDS011;50681;53.334;-6.536;2023-04-03T04:17:59;11.45;;;6.88;;
64353;SDS011;50681;53.334;-6.536;2023-04-03T04:20:25;11.67;;;6.97;;
64353;SDS011;50681;53.334;-6.536;2023-04-03T04:22:50;11.07;;;7.93;;
64353;SDS011;50681;53.334;-6.536;2023-04-03T04:25:16;21.17;;;7.63;;
64353;SDS011;50681;53.334;-6.536;2023-04-03T04:27:41;19.57;;;11.23;;
64353;SDS011;50681;53.334;-6.536;2023-04-03T04:30:07;22.83;;;10.30;;
64353;SDS011;50681;53.334;-6.536;2023-04-03T04:32:33;19.67;;;8.57;;
64353;SDS011;50681;53.334;-6.536;2023-04-03T04:35:05;13.07;;;7.23;;
64353;SDS011;50681;53.334;-6.536;2023-04-03T04:37:31;13.60;;;7.78;;
64353;SDS011;50681;53.334;-6.536;2023-04-03T04:39:56;13.20;;;7.77;;
64353;SDS011;50681;53.334;-6.536;2023-04-03T04:42:22;13.13;;;8.30;;
64353;SDS011;50681;53.334;-6.536;2023-04-03T04:44:47;17.27;;;9.37;;
64353;SDS011;50681;53.334;-6.536;2023-04-03T04:47:12;22.60;;;9.43;;
64353;SDS011;50681;53.334;-6.536;2023-04-03T04:49:38;19.07;;;8.43;;
64353;SDS011;50681;53.334;-6.536;2023-04-03T04:52:03;20.93;;;9.00;;
64353;SDS011;50681;53.334;-6.536;2023-04-03T04:54:29;14.33;;;8.57;;
64353;SDS011;50681;53.334;-6.536;2023-04-03T04:56:57;13.57;;;8.15;;
64353;SDS011;50681;53.334;-6.536;2023-04-03T04:59:23;13.27;;;7.97;;
64353;SDS011;50681;53.334;-6.536;2023-04-03T05:01:48;16.93;;;8.47;;
64353;SDS011;50681;53.334;-6.536;2023-04-03T05:04:13;19.00;;;9.60;;
64353;SDS011;50681;53.334;-6.536;2023-04-03T05:06:40;15.95;;;8.70;;
64353;SDS011;50681;53.334;-6.536;2023-04-03T05:09:05;14.43;;;9.17;;
64353;SDS011;50681;53.334;-6.536;2023-04-03T05:11:31;18.38;;;9.55;;
64353;SDS011;50681;53.334;-6.536;2023-04-03T05:13:57;13.13;;;8.90;;
64353;SDS011;50681;53.334;-6.536;2023-04-03T05:16:22;16.73;;;9.27;;
64353;SDS011;50681;53.334;-6.536;2023-04-03T05:18:47;19.47;;;9.33;;
64353;SDS011;50681;53.334;-6.536;2023-04-03T05:21:13;13.27;;;8.47;;
64353;SDS011;50681;53.334;-6.536;2023-04-03T05:23:38;13.73;;;8.73;;
64353;SDS011;50681;53.334;-6.536;2023-04-03T05:26:06;19.43;;;8.93;;
64353;SDS011;50681;53.334;-6.536;2023-04-03T05:28:34;15.05;;;8.70;;
64353;SDS011;50681;53.334;-6.536;2023-04-03T05:31:00;12.32;;;8.35;;
64353;SDS011;50681;53.334;-6.536;2023-04-03T05:33:25;12.60;;;8.13;;
64353;SDS011;50681;53.334;-6.536;2023-04-03T05:35:52;14.13;;;8.38;;
64353;SDS011;50681;53.334;-6.536;2023-04-03T05:40:43;14.93;;;7.32;;
64353;SDS011;50681;53.334;-6.536;2023-04-03T05:43:09;16.27;;;8.57;;
64353;SDS011;50681;53.334;-6.536;2023-04-03T05:45:34;12.60;;;7.77;;
64353;SDS011;50681;53.334;-6.536;2023-04-03T05:48:00;13.17;;;7.73;;
64353;SDS011;50681;53.334;-6.536;2023-04-03T05:50:25;13.27;;;9.03;;
64353;SDS011;50681;53.334;-6.536;2023-04-03T05:52:51;26.03;;;8.23;;
64353;SDS011;50681;53.334;-6.536;2023-04-03T05:55:21;12.98;;;6.90;;
64353;SDS011;50681;53.334;-6.536;2023-04-03T05:57:46;13.80;;;6.78;;
64353;SDS011;50681;53.334;-6.536;2023-04-03T06:00:14;13.03;;;7.17;;
64353;SDS011;50681;53.334;-6.536;2023-04-03T06:02:41;19.98;;;6.90;;
64353;SDS011;50681;53.334;-6.536;2023-04-03T06:05:07;13.73;;;6.57;;
64353;SDS011;50681;53.334;-6.536;2023-04-03T06:07:34;13.82;;;6.57;;
64353;SDS011;50681;53.334;-6.536;2023-04-03T06:09:59;9.37;;;6.00;;
64353;SDS011;50681;53.334;-6.536;2023-04-03T06:12:26;12.88;;;6.40;;
64353;SDS011;50681;53.334;-6.536;2023-04-03T06:14:53;12.40;;;6.15;;
64353;SDS011;50681;53.334;-6.536;2023-04-03T06:17:19;9.07;;;5.80;;
64353;SDS011;50681;53.334;-6.536;2023-04-03T06:19:45;11.02;;;6.15;;
64353;SDS011;50681;53.334;-6.536;2023-04-03T06:22:12;7.78;;;5.30;;
64353;SDS011;50681;53.334;-6.536;2023-04-03T06:24:38;13.95;;;5.45;;
64353;SDS011;50681;53.334;-6.536;2023-04-03T06:27:04;13.40;;;5.37;;
64353;SDS011;50681;53.334;-6.536;2023-04-03T06:29:29;10.85;;;5.22;;
64353;SDS011;50681;53.334;-6.536;2023-04-03T06:31:55;15.20;;;6.70;;
64353;SDS011;50681;53.334;-6.536;2023-04-03T06:34:21;10.05;;;4.95;;
64353;SDS011;50681;53.334;-6.536;2023-04-03T06:36:47;10.83;;;5.40;;
64353;SDS011;50681;53.334;-6.536;2023-04-03T06:39:15;15.32;;;6.00;;
64353;SDS011;50681;53.334;-6.536;2023-04-03T06:41:43;7.57;;;4.65;;
64353;SDS011;50681;53.334;-6.536;2023-04-03T06:44:09;14.40;;;5.70;;
64353;SDS011;50681;53.334;-6.536;2023-04-03T06:46:36;13.27;;;6.07;;
64353;SDS011;50681;53.334;-6.536;2023-04-03T06:49:03;16.73;;;7.05;;
64353;SDS011;50681;53.334;-6.536;2023-04-03T06:51:30;17.23;;;8.38;;
64353;SDS011;50681;53.334;-6.536;2023-04-03T06:56:23;24.05;;;8.80;;
64353;SDS011;50681;53.334;-6.536;2023-04-03T06:58:50;15.02;;;8.23;;
64353;SDS011;50681;53.334;-6.536;2023-04-03T07:01:19;15.27;;;8.30;;
64353;SDS011;50681;53.334;-6.536;2023-04-03T07:03:44;18.70;;;8.87;;
64353;SDS011;50681;53.334;-6.536;2023-04-03T07:06:12;14.43;;;7.80;;
64353;SDS011;50681;53.334;-6.536;2023-04-03T07:08:39;19.23;;;8.18;;
64353;SDS011;50681;53.334;-6.536;2023-04-03T07:11:05;14.88;;;8.30;;
64353;SDS011;50681;53.334;-6.536;2023-04-03T07:13:31;17.75;;;8.00;;
64353;SDS011;50681;53.334;-6.536;2023-04-03T07:15:58;21.65;;;9.05;;
64353;SDS011;50681;53.334;-6.536;2023-04-03T07:18:24;20.33;;;8.88;;
64353;SDS011;50681;53.334;-6.536;2023-04-03T07:20:50;13.75;;;8.25;;
64353;SDS011;50681;53.334;-6.536;2023-04-03T07:23:16;17.88;;;7.80;;
64353;SDS011;50681;53.334;-6.536;2023-04-03T07:25:45;11.98;;;6.25;;
64353;SDS011;50681;53.334;-6.536;2023-04-03T07:28:11;13.60;;;6.00;;
64353;SDS011;50681;53.334;-6.536;2023-04-03T07:33:10;18.73;;;5.63;;
64353;SDS011;50681;53.334;-6.536;2023-04-03T07:35:36;17.45;;;5.93;;
64353;SDS011;50681;53.334;-6.536;2023-04-03T07:38:02;13.43;;;5.20;;
64353;SDS011;50681;53.334;-6.536;2023-04-03T07:40:27;10.40;;;4.27;;
64353;SDS011;50681;53.334;-6.536;2023-04-03T07:42:53;15.47;;;4.73;;
64353;SDS011;50681;53.334;-6.536;2023-04-03T07:47:45;16.05;;;5.35;;
64353;SDS011;50681;53.334;-6.536;2023-04-03T07:50:10;17.60;;;4.83;;
64353;SDS011;50681;53.334;-6.536;2023-04-03T07:52:36;10.60;;;3.93;;
64353;SDS011;50681;53.334;-6.536;2023-04-03T07:55:01;14.20;;;4.40;;
64353;SDS011;50681;53.334;-6.536;2023-04-03T07:57:27;13.63;;;4.87;;
64353;SDS011;50681;53.334;-6.536;2023-04-03T07:59:55;12.13;;;4.30;;
64353;SDS011;50681;53.334;-6.536;2023-04-03T08:02:27;14.30;;;4.40;;
64353;SDS011;50681;53.334;-6.536;2023-04-03T08:04:52;8.57;;;4.20;;
64353;SDS011;50681;53.334;-6.536;2023-04-03T08:07:21;15.77;;;4.60;;
64353;SDS011;50681;53.334;-6.536;2023-04-03T08:09:46;15.05;;;4.80;;
64353;SDS011;50681;53.334;-6.536;2023-04-03T08:12:12;12.47;;;4.87;;
64353;SDS011;50681;53.334;-6.536;2023-04-03T08:14:39;13.95;;;4.22;;
64353;SDS011;50681;53.334;-6.536;2023-04-03T08:17:05;15.48;;;4.50;;
64353;SDS011;50681;53.334;-6.536;2023-04-03T08:19:34;14.98;;;4.68;;
64353;SDS011;50681;53.334;-6.536;2023-04-03T08:22:00;12.40;;;4.63;;
64353;SDS011;50681;53.334;-6.536;2023-04-03T08:24:28;20.13;;;6.25;;
64353;SDS011;50681;53.334;-6.536;2023-04-03T08:29:25;51.42;;;23.70;;
64353;SDS011;50681;53.334;-6.536;2023-04-03T08:31:53;63.80;;;25.58;;
64353;SDS011;50681;53.334;-6.536;2023-04-03T08:36:22;22.17;;;5.63;;
64353;SDS011;50681;53.334;-6.536;2023-04-03T08:38:58;21.02;;;5.82;;
64353;SDS011;50681;53.334;-6.536;2023-04-03T08:41:32;15.43;;;5.03;;
64353;SDS011;50681;53.334;-6.536;2023-04-03T08:49:42;19.58;;;4.88;;
64353;SDS011;50681;53.334;-6.536;2023-04-03T08:52:36;17.42;;;5.72;;
64353;SDS011;50681;53.334;-6.536;2023-04-03T08:55:46;12.38;;;4.55;;
64353;SDS011;50681;53.334;-6.536;2023-04-03T08:58:18;12.32;;;4.22;;
64353;SDS011;50681;53.334;-6.536;2023-04-03T09:00:44;17.73;;;4.75;;
64353;SDS011;50681;53.334;-6.536;2023-04-03T09:03:15;10.48;;;4.38;;
64353;SDS011;50681;53.334;-6.536;2023-04-03T09:08:33;15.63;;;4.32;;
64353;SDS011;50681;53.334;-6.536;2023-04-03T09:16:49;13.77;;;3.85;;
64353;SDS011;50681;53.334;-6.536;2023-04-03T09:19:35;12.80;;;3.90;;
64353;SDS011;50681;53.334;-6.536;2023-04-03T09:24:50;11.48;;;3.47;;
64353;SDS011;50681;53.334;-6.536;2023-04-03T09:27:38;8.23;;;2.72;;
64353;SDS011;50681;53.334;-6.536;2023-04-03T09:30:03;9.33;;;3.30;;
64353;SDS011;50681;53.334;-6.536;2023-04-03T09:32:34;13.32;;;3.08;;
64353;SDS011;50681;53.334;-6.536;2023-04-03T09:35:02;13.93;;;3.40;;
64353;SDS011;50681;53.334;-6.536;2023-04-03T09:37:33;9.85;;;2.72;;
64353;SDS011;50681;53.334;-6.536;2023-04-03T09:40:29;7.45;;;2.50;;
64353;SDS011;50681;53.334;-6.536;2023-04-03T09:42:57;14.15;;;3.00;;
64353;SDS011;50681;53.334;-6.536;2023-04-03T09:45:29;11.63;;;2.90;;
64353;SDS011;50681;53.334;-6.536;2023-04-03T09:51:00;13.30;;;3.17;;
64353;SDS011;50681;53.334;-6.536;2023-04-03T09:53:41;14.30;;;2.65;;
64353;SDS011;50681;53.334;-6.536;2023-04-03T09:56:18;9.32;;;2.67;;
64353;SDS011;50681;53.334;-6.536;2023-04-03T09:58:51;11.60;;;3.08;;
64353;SDS011;50681;53.334;-6.536;2023-04-03T10:01:42;6.80;;;2.63;;
64353;SDS011;50681;53.334;-6.536;2023-04-03T10:04:20;5.43;;;2.00;;
64353;SDS011;50681;53.334;-6.536;2023-04-03T10:06:50;13.15;;;3.17;;
64353;SDS011;50681;53.334;-6.536;2023-04-03T10:14:37;10.75;;;4.03;;
64353;SDS011;50681;53.334;-6.536;2023-04-03T10:19:53;7.80;;;2.30;;
64353;SDS011;50681;53.334;-6.536;2023-04-03T10:36:04;8.98;;;1.92;;
64353;SDS011;50681;53.334;-6.536;2023-04-03T10:38:51;5.60;;;2.10;;
64353;SDS011;50681;53.334;-6.536;2023-04-03T10:44:19;13.17;;;5.30;;
64353;SDS011;50681;53.334;-6.536;2023-04-03T10:47:17;10.93;;;3.58;;
64353;SDS011;50681;53.334;-6.536;2023-04-03T10:58:01;10.55;;;2.13;;
64353;SDS011;50681;53.334;-6.536;2023-04-03T11:00:39;8.93;;;1.98;;
64353;SDS011;50681;53.334;-6.536;2023-04-03T11:03:21;8.18;;;2.47;;
64353;SDS011;50681;53.334;-6.536;2023-04-03T11:05:56;15.20;;;2.80;;
64353;SDS011;50681;53.334;-6.536;2023-04-03T11:11:01;10.68;;;2.72;;
64353;SDS011;50681;53.334;-6.536;2023-04-03T11:13:37;15.65;;;2.35;;
64353;SDS011;50681;53.334;-6.536;2023-04-03T11:16:09;10.05;;;3.08;;
64353;SDS011;50681;53.334;-6.536;2023-04-03T11:18:48;7.03;;;1.90;;
64353;SDS011;50681;53.334;-6.536;2023-04-03T11:21:20;15.15;;;2.22;;
64353;SDS011;50681;53.334;-6.536;2023-04-03T11:23:54;10.45;;;2.45;;
64353;SDS011;50681;53.334;-6.536;2023-04-03T11:26:24;6.53;;;1.90;;
64353;SDS011;50681;53.334;-6.536;2023-04-03T11:29:03;6.50;;;1.92;;
64353;SDS011;50681;53.334;-6.536;2023-04-03T11:31:38;8.07;;;2.05;;
64353;SDS011;50681;53.334;-6.536;2023-04-03T11:37:04;10.32;;;2.60;;
64353;SDS011;50681;53.334;-6.536;2023-04-03T11:39:37;12.10;;;2.20;;
64353;SDS011;50681;53.334;-6.536;2023-04-03T11:44:39;6.00;;;2.88;;
64353;SDS011;50681;53.334;-6.536;2023-04-03T11:47:08;10.77;;;2.30;;
64353;SDS011;50681;53.334;-6.536;2023-04-03T11:57:46;9.23;;;2.58;;
64353;SDS011;50681;53.334;-6.536;2023-04-03T12:05:50;9.75;;;2.92;;
64353;SDS011;50681;53.334;-6.536;2023-04-03T12:16:27;37.53;;;15.83;;
64353;SDS011;50681;53.334;-6.536;2023-04-03T12:23:58;16.97;;;6.93;;
64353;SDS011;50681;53.334;-6.536;2023-04-03T12:29:13;16.33;;;4.85;;
64353;SDS011;50681;53.334;-6.536;2023-04-03T12:31:46;10.98;;;4.28;;
64353;SDS011;50681;53.334;-6.536;2023-04-03T12:34:41;12.13;;;3.35;;
64353;SDS011;50681;53.334;-6.536;2023-04-03T12:46:03;15.30;;;2.50;;
64353;SDS011;50681;53.334;-6.536;2023-04-03T12:48:47;13.13;;;3.00;;
64353;SDS011;50681;53.334;-6.536;2023-04-03T12:51:21;9.70;;;2.35;;
64353;SDS011;50681;53.334;-6.536;2023-04-03T12:56:41;10.68;;;2.20;;
64353;SDS011;50681;53.334;-6.536;2023-04-03T12:59:23;9.67;;;2.43;;
64353;SDS011;50681;53.334;-6.536;2023-04-03T13:02:00;8.45;;;2.20;;
64353;SDS011;50681;53.334;-6.536;2023-04-03T13:04:37;16.83;;;1.90;;
64353;SDS011;50681;53.334;-6.536;2023-04-03T13:07:03;11.50;;;2.90;;
64353;SDS011;50681;53.334;-6.536;2023-04-03T13:09:30;11.63;;;2.00;;
64353;SDS011;50681;53.334;-6.536;2023-04-03T13:12:17;12.70;;;2.20;;
64353;SDS011;50681;53.334;-6.536;2023-04-03T13:14:56;14.05;;;2.28;;
64353;SDS011;50681;53.334;-6.536;2023-04-03T13:17:24;10.02;;;3.00;;
64353;SDS011;50681;53.334;-6.536;2023-04-03T13:19:52;7.22;;;2.13;;
64353;SDS011;50681;53.334;-6.536;2023-04-03T13:22:35;14.45;;;2.45;;
64353;SDS011;50681;53.334;-6.536;2023-04-03T13:25:10;11.60;;;2.42;;
64353;SDS011;50681;53.334;-6.536;2023-04-03T13:27:40;9.07;;;2.00;;
64353;SDS011;50681;53.334;-6.536;2023-04-03T13:30:30;8.18;;;2.30;;
64353;SDS011;50681;53.334;-6.536;2023-04-03T13:33:02;7.78;;;2.22;;
64353;SDS011;50681;53.334;-6.536;2023-04-03T13:35:35;12.60;;;2.22;;
64353;SDS011;50681;53.334;-6.536;2023-04-03T13:40:47;15.50;;;2.60;;
64353;SDS011;50681;53.334;-6.536;2023-04-03T13:43:19;13.27;;;2.00;;
64353;SDS011;50681;53.334;-6.536;2023-04-03T13:46:19;11.77;;;2.47;;
64353;SDS011;50681;53.334;-6.536;2023-04-03T13:48:52;10.98;;;2.45;;
64353;SDS011;50681;53.334;-6.536;2023-04-03T13:51:24;9.15;;;1.85;;
64353;SDS011;50681;53.334;-6.536;2023-04-03T13:54:00;9.05;;;2.28;;
64353;SDS011;50681;53.334;-6.536;2023-04-03T13:56:43;16.77;;;2.95;;
64353;SDS011;50681;53.334;-6.536;2023-04-03T14:01:51;7.47;;;2.10;;
64353;SDS011;50681;53.334;-6.536;2023-04-03T14:07:17;11.35;;;2.35;;
64353;SDS011;50681;53.334;-6.536;2023-04-03T14:09:45;21.23;;;7.20;;
64353;SDS011;50681;53.334;-6.536;2023-04-03T14:12:17;11.68;;;3.47;;
64353;SDS011;50681;53.334;-6.536;2023-04-03T14:14:54;13.30;;;2.78;;
64353;SDS011;50681;53.334;-6.536;2023-04-03T14:19:50;11.18;;;2.80;;
64353;SDS011;50681;53.334;-6.536;2023-04-03T14:22:22;8.10;;;2.95;;
64353;SDS011;50681;53.334;-6.536;2023-04-03T14:24:54;8.38;;;3.63;;
64353;SDS011;50681;53.334;-6.536;2023-04-03T14:29:57;11.50;;;4.18;;
64353;SDS011;50681;53.334;-6.536;2023-04-03T14:34:56;9.52;;;2.58;;
64353;SDS011;50681;53.334;-6.536;2023-04-03T14:37:28;9.85;;;2.20;;
64353;SDS011;50681;53.334;-6.536;2023-04-03T14:39:59;16.42;;;2.45;;
64353;SDS011;50681;53.334;-6.536;2023-04-03T14:42:33;5.65;;;2.20;;
64353;SDS011;50681;53.334;-6.536;2023-04-03T14:45:21;13.68;;;2.60;;
64353;SDS011;50681;53.334;-6.536;2023-04-03T14:47:57;23.92;;;6.22;;
64353;SDS011;50681;53.334;-6.536;2023-04-03T14:50:25;15.40;;;5.22;;
64353;SDS011;50681;53.334;-6.536;2023-04-03T14:53:01;20.30;;;5.93;;
64353;SDS011;50681;53.334;-6.536;2023-04-03T14:55:27;13.18;;;2.95;;
64353;SDS011;50681;53.334;-6.536;2023-04-03T14:57:55;7.80;;;1.85;;
64353;SDS011;50681;53.334;-6.536;2023-04-03T15:00:22;8.43;;;1.92;;
64353;SDS011;50681;53.334;-6.536;2023-04-03T15:05:14;17.20;;;5.10;;
64353;SDS011;50681;53.334;-6.536;2023-04-03T15:07:42;19.58;;;10.88;;
64353;SDS011;50681;53.334;-6.536;2023-04-03T15:12:42;11.13;;;3.80;;
64353;SDS011;50681;53.334;-6.536;2023-04-03T15:15:08;9.38;;;2.20;;
64353;SDS011;50681;53.334;-6.536;2023-04-03T15:17:34;9.30;;;2.40;;
64353;SDS011;50681;53.334;-6.536;2023-04-03T15:20:05;8.00;;;2.40;;
64353;SDS011;50681;53.334;-6.536;2023-04-03T15:22:41;7.68;;;2.28;;
64353;SDS011;50681;53.334;-6.536;2023-04-03T15:25:09;10.82;;;3.38;;
64353;SDS011;50681;53.334;-6.536;2023-04-03T15:27:51;7.63;;;2.20;;
64353;SDS011;50681;53.334;-6.536;2023-04-03T15:30:32;5.85;;;1.90;;
64353;SDS011;50681;53.334;-6.536;2023-04-03T15:33:05;12.13;;;2.42;;
64353;SDS011;50681;53.334;-6.536;2023-04-03T15:35:41;10.38;;;2.35;;
64353;SDS011;50681;53.334;-6.536;2023-04-03T15:38:06;8.30;;;2.22;;
64353;SDS011;50681;53.334;-6.536;2023-04-03T15:40:32;58.93;;;17.50;;
64353;SDS011;50681;53.334;-6.536;2023-04-03T15:43:01;13.18;;;7.88;;
64353;SDS011;50681;53.334;-6.536;2023-04-03T15:45:31;79.90;;;23.75;;
64353;SDS011;50681;53.334;-6.536;2023-04-03T15:47:58;6.82;;;2.92;;
64353;SDS011;50681;53.334;-6.536;2023-04-03T15:50:24;13.15;;;2.83;;
64353;SDS011;50681;53.334;-6.536;2023-04-03T15:52:53;8.35;;;3.00;;
64353;SDS011;50681;53.334;-6.536;2023-04-03T15:55:31;9.80;;;2.55;;
64353;SDS011;50681;53.334;-6.536;2023-04-03T15:58:07;15.07;;;2.25;;
64353;SDS011;50681;53.334;-6.536;2023-04-03T16:00:36;7.80;;;2.40;;
64353;SDS011;50681;53.334;-6.536;2023-04-03T16:03:05;12.45;;;2.85;;
64353;SDS011;50681;53.334;-6.536;2023-04-03T16:05:46;10.75;;;2.45;;
64353;SDS011;50681;53.334;-6.536;2023-04-03T16:08:14;6.00;;;2.53;;
64353;SDS011;50681;53.334;-6.536;2023-04-03T16:10:41;10.55;;;2.67;;
64353;SDS011;50681;53.334;-6.536;2023-04-03T16:13:07;7.47;;;2.08;;
64353;SDS011;50681;53.334;-6.536;2023-04-03T16:15:34;6.97;;;2.17;;
64353;SDS011;50681;53.334;-6.536;2023-04-03T16:18:13;10.50;;;2.40;;
64353;SDS011;50681;53.334;-6.536;2023-04-03T16:20:39;12.18;;;8.15;;
64353;SDS011;50681;53.334;-6.536;2023-04-03T16:23:10;10.30;;;2.50;;
64353;SDS011;50681;53.334;-6.536;2023-04-03T16:25:39;11.55;;;3.38;;
64353;SDS011;50681;53.334;-6.536;2023-04-03T16:28:12;16.47;;;8.73;;
64353;SDS011;50681;53.334;-6.536;2023-04-03T16:30:42;9.15;;;3.80;;
64353;SDS011;50681;53.334;-6.536;2023-04-03T16:33:14;13.48;;;5.35;;
64353;SDS011;50681;53.334;-6.536;2023-04-03T16:35:47;19.27;;;9.43;;
64353;SDS011;50681;53.334;-6.536;2023-04-03T16:38:19;8.90;;;4.35;;
64353;SDS011;50681;53.334;-6.536;2023-04-03T16:40:51;19.70;;;9.73;;
64353;SDS011;50681;53.334;-6.536;2023-04-03T16:43:24;12.57;;;5.53;;
64353;SDS011;50681;53.334;-6.536;2023-04-03T16:45:50;34.97;;;20.13;;
64353;SDS011;50681;53.334;-6.536;2023-04-03T16:48:15;43.73;;;22.50;;
64353;SDS011;50681;53.334;-6.536;2023-04-03T16:50:41;34.87;;;19.37;;
64353;SDS011;50681;53.334;-6.536;2023-04-03T16:53:06;30.50;;;17.80;;
64353;SDS011;50681;53.334;-6.536;2023-04-03T16:55:34;21.33;;;10.68;;
64353;SDS011;50681;53.334;-6.536;2023-04-03T16:58:00;29.70;;;16.17;;
64353;SDS011;50681;53.334;-6.536;2023-04-03T17:00:26;28.03;;;15.03;;
64353;SDS011;50681;53.334;-6.536;2023-04-03T17:02:54;36.85;;;20.90;;
64353;SDS011;50681;53.334;-6.536;2023-04-03T17:05:20;40.65;;;18.25;;
64353;SDS011;50681;53.334;-6.536;2023-04-03T17:07:45;44.95;;;20.40;;
64353;SDS011;50681;53.334;-6.536;2023-04-03T17:10:12;60.97;;;27.23;;
64353;SDS011;50681;53.334;-6.536;2023-04-03T17:12:39;122.45;;;58.40;;